This is the latest recevied weather packets stored in our database for station/object YREN. If no packets are shown the sender has not sent any weather packets the latest 10 day(s).
| Time | Temp. | Humidity | Pressure | Rain* | Wind** | Luminosity | Snow |
|---|---|---|---|---|---|---|---|
| 1788601804 | 13.33° C | 60% | 1017.6 hPa | 0 mm | - | - | - |
| 1788600904 | 13.33° C | 60% | 1017.6 hPa | 0 mm | - | - | - |
| 1788600003 | 14.44° C | 57% | 1017.1 hPa | 0 mm | - | - | - |
| 1788599104 | 14.44° C | 57% | 1017.1 hPa | 0 mm | - | - | - |
| 1788598204 | 15° C | 54% | 1016.4 hPa | 0 mm | - | - | - |
| 1788597303 | 15° C | 54% | 1016.4 hPa | 0 mm | - | - | - |
| 1788596404 | 15.56° C | 51% | 1015.7 hPa | 0 mm | - | - | - |
| 1788595504 | 15.56° C | 51% | 1015.7 hPa | 0 mm | - | - | - |
| 1788594605 | 16.67° C | 49% | 1015.2 hPa | 0 mm | - | - | - |
| 1788593704 | 16.67° C | 49% | 1015.2 hPa | 0 mm | - | - | - |
| 1788592819 | 16.67° C | 49% | 1014.6 hPa | 0 mm | - | - | - |
| 1788591904 | 16.67° C | 49% | 1014.6 hPa | 0 mm | - | - | - |
| 1788591004 | 17.22° C | 43% | 1014.4 hPa | 0 mm | - | - | - |
| 1788590104 | 17.22° C | 43% | 1014.4 hPa | 0 mm | - | - | - |
| 1788589204 | 17.78° C | 46% | 1013.7 hPa | 0 mm | - | - | - |
| 1788588304 | 17.78° C | 46% | 1013.7 hPa | 0 mm | - | - | - |
| 1788587403 | 17.78° C | 47% | 1013.4 hPa | 0 mm | - | - | - |
| 1788586504 | 17.78° C | 47% | 1013.4 hPa | 0 mm | - | - | - |
| 1788585604 | 17.22° C | 46% | 1013.2 hPa | 0 mm | - | - | - |
| 1788584704 | 17.22° C | 46% | 1013.2 hPa | 0 mm | - | - | - |
| 1788583804 | 17.78° C | 50% | 1012.8 hPa | 0.25 mm | - | - | - |
| 1788582904 | 17.78° C | 50% | 1012.8 hPa | 0.25 mm | - | - | - |
| 1788582004 | 19.44° C | 42% | 1012.4 hPa | 0.25 mm | - | - | - |
| 1788581104 | 19.44° C | 42% | 1012.4 hPa | 0.25 mm | - | - | - |
| 1788580205 | 17.78° C | 50% | 1012.6 hPa | 0 mm | - | - | - |
* Rain latest hour (hover to see other rain measurements)
** Current wind speed in m/s (hover to see current wind gust speed)